sensor_id;sensor_type;location;lat;lon;timestamp;P1;durP1;ratioP1;P2;durP2;ratioP2
27893;SDS011;15240;50.812;4.792;2023-05-07T00:00:24;14.93;;;9.57;;
27893;SDS011;15240;50.812;4.792;2023-05-07T00:02:50;12.43;;;9.10;;
27893;SDS011;15240;50.812;4.792;2023-05-07T00:05:18;14.73;;;10.07;;
27893;SDS011;15240;50.812;4.792;2023-05-07T00:07:45;14.23;;;8.90;;
27893;SDS011;15240;50.812;4.792;2023-05-07T00:10:11;13.67;;;9.60;;
27893;SDS011;15240;50.812;4.792;2023-05-07T00:12:37;13.83;;;8.03;;
27893;SDS011;15240;50.812;4.792;2023-05-07T00:15:04;13.97;;;9.97;;
27893;SDS011;15240;50.812;4.792;2023-05-07T00:17:30;15.73;;;11.23;;
27893;SDS011;15240;50.812;4.792;2023-05-07T00:19:56;20.63;;;13.67;;
27893;SDS011;15240;50.812;4.792;2023-05-07T00:22:22;20.33;;;12.40;;
27893;SDS011;15240;50.812;4.792;2023-05-07T00:24:48;20.93;;;12.37;;
27893;SDS011;15240;50.812;4.792;2023-05-07T00:27:15;17.47;;;12.17;;
27893;SDS011;15240;50.812;4.792;2023-05-07T00:29:41;13.20;;;10.10;;
27893;SDS011;15240;50.812;4.792;2023-05-07T00:32:07;14.73;;;9.67;;
27893;SDS011;15240;50.812;4.792;2023-05-07T00:34:35;17.00;;;12.20;;
27893;SDS011;15240;50.812;4.792;2023-05-07T00:37:01;16.17;;;11.63;;
27893;SDS011;15240;50.812;4.792;2023-05-07T00:39:28;18.37;;;12.27;;
27893;SDS011;15240;50.812;4.792;2023-05-07T00:41:54;14.27;;;10.77;;
27893;SDS011;15240;50.812;4.792;2023-05-07T00:44:20;15.27;;;9.00;;
27893;SDS011;15240;50.812;4.792;2023-05-07T00:46:47;14.43;;;10.43;;
27893;SDS011;15240;50.812;4.792;2023-05-07T00:49:14;13.40;;;9.20;;
27893;SDS011;15240;50.812;4.792;2023-05-07T00:51:41;13.07;;;8.43;;
27893;SDS011;15240;50.812;4.792;2023-05-07T00:54:07;11.67;;;9.53;;
27893;SDS011;15240;50.812;4.792;2023-05-07T00:56:33;17.33;;;12.17;;
27893;SDS011;15240;50.812;4.792;2023-05-07T00:59:01;20.60;;;14.23;;
27893;SDS011;15240;50.812;4.792;2023-05-07T01:01:27;20.07;;;14.87;;
27893;SDS011;15240;50.812;4.792;2023-05-07T01:03:53;20.60;;;14.63;;
27893;SDS011;15240;50.812;4.792;2023-05-07T01:06:20;19.10;;;14.97;;
27893;SDS011;15240;50.812;4.792;2023-05-07T01:08:47;23.90;;;15.37;;
27893;SDS011;15240;50.812;4.792;2023-05-07T01:11:14;24.30;;;17.03;;
27893;SDS011;15240;50.812;4.792;2023-05-07T01:13:40;21.07;;;16.10;;
27893;SDS011;15240;50.812;4.792;2023-05-07T01:16:08;22.43;;;15.83;;
27893;SDS011;15240;50.812;4.792;2023-05-07T01:18:35;22.17;;;16.00;;
27893;SDS011;15240;50.812;4.792;2023-05-07T01:21:01;20.07;;;14.07;;
27893;SDS011;15240;50.812;4.792;2023-05-07T01:23:28;18.50;;;13.33;;
27893;SDS011;15240;50.812;4.792;2023-05-07T01:25:56;18.47;;;13.93;;
27893;SDS011;15240;50.812;4.792;2023-05-07T01:28:22;18.83;;;13.33;;
27893;SDS011;15240;50.812;4.792;2023-05-07T01:30:55;22.13;;;14.27;;
27893;SDS011;15240;50.812;4.792;2023-05-07T01:33:23;19.57;;;12.87;;
27893;SDS011;15240;50.812;4.792;2023-05-07T01:35:51;17.40;;;12.17;;
27893;SDS011;15240;50.812;4.792;2023-05-07T01:38:19;19.07;;;14.07;;
27893;SDS011;15240;50.812;4.792;2023-05-07T01:40:47;24.90;;;15.50;;
27893;SDS011;15240;50.812;4.792;2023-05-07T01:43:13;22.40;;;14.10;;
27893;SDS011;15240;50.812;4.792;2023-05-07T01:45:39;21.40;;;14.03;;
27893;SDS011;15240;50.812;4.792;2023-05-07T01:48:06;16.70;;;13.33;;
27893;SDS011;15240;50.812;4.792;2023-05-07T01:50:32;17.43;;;12.27;;
27893;SDS011;15240;50.812;4.792;2023-05-07T01:52:59;21.73;;;13.20;;
27893;SDS011;15240;50.812;4.792;2023-05-07T01:55:27;20.47;;;15.10;;
27893;SDS011;15240;50.812;4.792;2023-05-07T01:57:54;21.43;;;14.97;;
27893;SDS011;15240;50.812;4.792;2023-05-07T02:00:20;19.10;;;13.87;;
27893;SDS011;15240;50.812;4.792;2023-05-07T02:02:46;23.03;;;14.13;;
27893;SDS011;15240;50.812;4.792;2023-05-07T02:05:13;14.83;;;12.00;;
27893;SDS011;15240;50.812;4.792;2023-05-07T02:07:39;16.23;;;11.90;;
27893;SDS011;15240;50.812;4.792;2023-05-07T02:10:05;23.90;;;15.13;;
27893;SDS011;15240;50.812;4.792;2023-05-07T02:12:31;25.33;;;17.90;;
27893;SDS011;15240;50.812;4.792;2023-05-07T02:14:57;25.47;;;18.10;;
27893;SDS011;15240;50.812;4.792;2023-05-07T02:17:23;25.60;;;17.50;;
27893;SDS011;15240;50.812;4.792;2023-05-07T02:19:50;27.63;;;18.27;;
27893;SDS011;15240;50.812;4.792;2023-05-07T02:22:17;23.47;;;16.27;;
27893;SDS011;15240;50.812;4.792;2023-05-07T02:24:43;24.63;;;16.37;;
27893;SDS011;15240;50.812;4.792;2023-05-07T02:27:09;22.20;;;17.93;;
27893;SDS011;15240;50.812;4.792;2023-05-07T02:29:35;25.07;;;18.60;;
27893;SDS011;15240;50.812;4.792;2023-05-07T02:32:02;26.00;;;18.80;;
27893;SDS011;15240;50.812;4.792;2023-05-07T02:34:28;24.00;;;17.80;;
27893;SDS011;15240;50.812;4.792;2023-05-07T02:36:54;24.73;;;16.77;;
27893;SDS011;15240;50.812;4.792;2023-05-07T02:39:21;21.17;;;16.03;;
27893;SDS011;15240;50.812;4.792;2023-05-07T02:41:47;24.77;;;16.67;;
27893;SDS011;15240;50.812;4.792;2023-05-07T02:44:13;22.07;;;16.00;;
27893;SDS011;15240;50.812;4.792;2023-05-07T02:46:39;23.37;;;17.20;;
27893;SDS011;15240;50.812;4.792;2023-05-07T02:49:05;22.60;;;15.63;;
27893;SDS011;15240;50.812;4.792;2023-05-07T02:51:31;20.83;;;17.00;;
27893;SDS011;15240;50.812;4.792;2023-05-07T02:53:57;23.37;;;18.80;;
27893;SDS011;15240;50.812;4.792;2023-05-07T02:56:25;26.67;;;16.50;;
27893;SDS011;15240;50.812;4.792;2023-05-07T02:58:52;23.93;;;18.00;;
27893;SDS011;15240;50.812;4.792;2023-05-07T03:01:18;18.80;;;16.30;;
27893;SDS011;15240;50.812;4.792;2023-05-07T03:03:44;25.90;;;18.10;;
27893;SDS011;15240;50.812;4.792;2023-05-07T03:06:10;24.77;;;17.47;;
27893;SDS011;15240;50.812;4.792;2023-05-07T03:08:36;23.67;;;16.63;;
27893;SDS011;15240;50.812;4.792;2023-05-07T03:11:02;24.83;;;17.90;;
27893;SDS011;15240;50.812;4.792;2023-05-07T03:13:28;23.53;;;17.60;;
27893;SDS011;15240;50.812;4.792;2023-05-07T03:15:54;24.83;;;17.70;;
27893;SDS011;15240;50.812;4.792;2023-05-07T03:18:21;24.83;;;18.07;;
27893;SDS011;15240;50.812;4.792;2023-05-07T03:20:47;29.67;;;20.03;;
27893;SDS011;15240;50.812;4.792;2023-05-07T03:23:14;28.77;;;20.97;;
27893;SDS011;15240;50.812;4.792;2023-05-07T03:25:40;26.87;;;19.77;;
27893;SDS011;15240;50.812;4.792;2023-05-07T03:28:06;27.20;;;20.50;;
27893;SDS011;15240;50.812;4.792;2023-05-07T03:30:32;28.57;;;20.23;;
27893;SDS011;15240;50.812;4.792;2023-05-07T03:32:59;26.07;;;19.40;;
27893;SDS011;15240;50.812;4.792;2023-05-07T03:35:25;24.03;;;18.20;;
27893;SDS011;15240;50.812;4.792;2023-05-07T03:37:51;22.70;;;17.63;;
27893;SDS011;15240;50.812;4.792;2023-05-07T03:40:17;27.00;;;19.40;;
27893;SDS011;15240;50.812;4.792;2023-05-07T03:42:43;30.67;;;20.53;;
27893;SDS011;15240;50.812;4.792;2023-05-07T03:45:09;26.27;;;19.43;;
27893;SDS011;15240;50.812;4.792;2023-05-07T03:47:35;22.70;;;17.80;;
27893;SDS011;15240;50.812;4.792;2023-05-07T03:50:01;27.87;;;18.90;;
27893;SDS011;15240;50.812;4.792;2023-05-07T03:52:27;26.13;;;19.67;;
27893;SDS011;15240;50.812;4.792;2023-05-07T03:54:53;25.77;;;19.50;;
27893;SDS011;15240;50.812;4.792;2023-05-07T03:57:20;26.37;;;18.17;;
27893;SDS011;15240;50.812;4.792;2023-05-07T03:59:46;22.83;;;18.20;;
27893;SDS011;15240;50.812;4.792;2023-05-07T04:02:12;24.43;;;17.40;;
27893;SDS011;15240;50.812;4.792;2023-05-07T04:04:38;25.27;;;18.00;;
27893;SDS011;15240;50.812;4.792;2023-05-07T04:07:05;24.43;;;18.60;;
27893;SDS011;15240;50.812;4.792;2023-05-07T04:09:32;23.60;;;18.87;;
27893;SDS011;15240;50.812;4.792;2023-05-07T04:11:58;22.87;;;16.93;;
27893;SDS011;15240;50.812;4.792;2023-05-07T04:14:24;19.83;;;15.07;;
27893;SDS011;15240;50.812;4.792;2023-05-07T04:16:50;24.77;;;17.97;;
27893;SDS011;15240;50.812;4.792;2023-05-07T04:19:16;23.00;;;17.70;;
27893;SDS011;15240;50.812;4.792;2023-05-07T04:21:42;28.47;;;18.60;;
27893;SDS011;15240;50.812;4.792;2023-05-07T04:24:08;27.77;;;19.70;;
27893;SDS011;15240;50.812;4.792;2023-05-07T04:26:34;23.60;;;17.90;;
27893;SDS011;15240;50.812;4.792;2023-05-07T04:29:00;28.67;;;19.03;;
27893;SDS011;15240;50.812;4.792;2023-05-07T04:31:27;29.20;;;19.47;;
27893;SDS011;15240;50.812;4.792;2023-05-07T04:33:53;25.87;;;19.27;;
27893;SDS011;15240;50.812;4.792;2023-05-07T04:36:19;23.57;;;18.43;;
27893;SDS011;15240;50.812;4.792;2023-05-07T04:38:46;24.07;;;18.63;;
27893;SDS011;15240;50.812;4.792;2023-05-07T04:41:12;23.50;;;16.53;;
27893;SDS011;15240;50.812;4.792;2023-05-07T04:43:39;22.37;;;17.07;;
27893;SDS011;15240;50.812;4.792;2023-05-07T04:46:07;23.63;;;17.43;;
27893;SDS011;15240;50.812;4.792;2023-05-07T04:48:33;24.63;;;17.33;;
27893;SDS011;15240;50.812;4.792;2023-05-07T04:50:59;26.70;;;18.40;;
27893;SDS011;15240;50.812;4.792;2023-05-07T04:53:25;23.67;;;18.87;;
27893;SDS011;15240;50.812;4.792;2023-05-07T04:55:55;23.90;;;16.77;;
27893;SDS011;15240;50.812;4.792;2023-05-07T04:58:23;22.60;;;18.17;;
27893;SDS011;15240;50.812;4.792;2023-05-07T05:00:49;19.83;;;17.37;;
27893;SDS011;15240;50.812;4.792;2023-05-07T05:03:15;25.47;;;17.83;;
27893;SDS011;15240;50.812;4.792;2023-05-07T05:05:41;23.47;;;17.40;;
27893;SDS011;15240;50.812;4.792;2023-05-07T05:08:08;25.70;;;17.13;;
27893;SDS011;15240;50.812;4.792;2023-05-07T05:10:34;20.90;;;16.30;;
27893;SDS011;15240;50.812;4.792;2023-05-07T05:13:01;24.20;;;16.20;;
27893;SDS011;15240;50.812;4.792;2023-05-07T05:15:29;22.40;;;17.57;;
27893;SDS011;15240;50.812;4.792;2023-05-07T05:17:55;23.57;;;16.03;;
27893;SDS011;15240;50.812;4.792;2023-05-07T05:20:21;22.60;;;15.57;;
27893;SDS011;15240;50.812;4.792;2023-05-07T05:22:48;21.07;;;15.17;;
27893;SDS011;15240;50.812;4.792;2023-05-07T05:25:15;25.13;;;15.40;;
27893;SDS011;15240;50.812;4.792;2023-05-07T05:27:49;23.03;;;15.13;;
27893;SDS011;15240;50.812;4.792;2023-05-07T05:30:15;17.93;;;14.70;;
27893;SDS011;15240;50.812;4.792;2023-05-07T05:32:41;20.67;;;14.57;;
27893;SDS011;15240;50.812;4.792;2023-05-07T05:35:07;22.80;;;13.90;;
27893;SDS011;15240;50.812;4.792;2023-05-07T05:37:34;20.67;;;13.27;;
27893;SDS011;15240;50.812;4.792;2023-05-07T05:40:00;23.47;;;13.90;;
27893;SDS011;15240;50.812;4.792;2023-05-07T05:42:26;18.23;;;12.63;;
27893;SDS011;15240;50.812;4.792;2023-05-07T05:44:52;18.67;;;12.23;;
27893;SDS011;15240;50.812;4.792;2023-05-07T05:47:18;21.03;;;13.00;;
27893;SDS011;15240;50.812;4.792;2023-05-07T05:49:44;19.23;;;11.87;;
27893;SDS011;15240;50.812;4.792;2023-05-07T05:52:11;17.03;;;10.90;;
27893;SDS011;15240;50.812;4.792;2023-05-07T05:54:39;19.60;;;11.87;;
27893;SDS011;15240;50.812;4.792;2023-05-07T05:57:05;18.13;;;11.60;;
27893;SDS011;15240;50.812;4.792;2023-05-07T05:59:31;17.60;;;11.10;;
27893;SDS011;15240;50.812;4.792;2023-05-07T06:01:58;15.13;;;10.07;;
27893;SDS011;15240;50.812;4.792;2023-05-07T06:04:24;16.43;;;10.80;;
27893;SDS011;15240;50.812;4.792;2023-05-07T06:06:50;14.57;;;9.60;;
27893;SDS011;15240;50.812;4.792;2023-05-07T06:09:16;13.93;;;9.40;;
27893;SDS011;15240;50.812;4.792;2023-05-07T06:11:43;14.17;;;9.33;;
27893;SDS011;15240;50.812;4.792;2023-05-07T06:14:09;14.00;;;9.73;;
27893;SDS011;15240;50.812;4.792;2023-05-07T06:16:35;16.77;;;9.40;;
27893;SDS011;15240;50.812;4.792;2023-05-07T06:19:03;14.77;;;9.03;;
27893;SDS011;15240;50.812;4.792;2023-05-07T06:21:29;15.27;;;9.93;;
27893;SDS011;15240;50.812;4.792;2023-05-07T06:23:55;14.87;;;9.37;;
27893;SDS011;15240;50.812;4.792;2023-05-07T06:26:21;14.57;;;9.17;;
27893;SDS011;15240;50.812;4.792;2023-05-07T06:28:47;16.17;;;10.07;;
27893;SDS011;15240;50.812;4.792;2023-05-07T06:31:14;14.67;;;9.20;;
27893;SDS011;15240;50.812;4.792;2023-05-07T06:33:41;14.03;;;9.77;;
27893;SDS011;15240;50.812;4.792;2023-05-07T06:36:08;13.73;;;8.63;;
27893;SDS011;15240;50.812;4.792;2023-05-07T06:38:36;11.93;;;7.43;;
27893;SDS011;15240;50.812;4.792;2023-05-07T06:41:02;12.57;;;7.50;;
27893;SDS011;15240;50.812;4.792;2023-05-07T06:43:28;13.10;;;7.10;;
27893;SDS011;15240;50.812;4.792;2023-05-07T06:45:54;11.83;;;6.80;;
27893;SDS011;15240;50.812;4.792;2023-05-07T06:48:20;11.87;;;7.37;;
27893;SDS011;15240;50.812;4.792;2023-05-07T06:50:46;12.47;;;7.63;;
27893;SDS011;15240;50.812;4.792;2023-05-07T06:53:12;13.33;;;7.97;;
27893;SDS011;15240;50.812;4.792;2023-05-07T06:55:39;14.17;;;8.23;;
27893;SDS011;15240;50.812;4.792;2023-05-07T06:58:05;11.67;;;7.17;;
27893;SDS011;15240;50.812;4.792;2023-05-07T07:00:32;15.33;;;7.23;;
27893;SDS011;15240;50.812;4.792;2023-05-07T07:02:58;11.57;;;6.77;;
27893;SDS011;15240;50.812;4.792;2023-05-07T07:05:26;10.23;;;6.63;;
27893;SDS011;15240;50.812;4.792;2023-05-07T07:07:52;12.77;;;6.13;;
27893;SDS011;15240;50.812;4.792;2023-05-07T07:10:19;11.80;;;6.43;;
27893;SDS011;15240;50.812;4.792;2023-05-07T07:12:45;11.77;;;7.03;;
27893;SDS011;15240;50.812;4.792;2023-05-07T07:15:13;11.77;;;6.83;;
27893;SDS011;15240;50.812;4.792;2023-05-07T07:17:39;13.80;;;6.00;;
27893;SDS011;15240;50.812;4.792;2023-05-07T07:20:05;12.17;;;6.73;;
27893;SDS011;15240;50.812;4.792;2023-05-07T07:22:31;11.03;;;5.10;;
27893;SDS011;15240;50.812;4.792;2023-05-07T07:24:58;9.97;;;4.93;;
27893;SDS011;15240;50.812;4.792;2023-05-07T07:27:24;10.83;;;4.40;;
27893;SDS011;15240;50.812;4.792;2023-05-07T07:29:50;7.47;;;4.13;;
27893;SDS011;15240;50.812;4.792;2023-05-07T07:32:16;9.93;;;4.50;;
27893;SDS011;15240;50.812;4.792;2023-05-07T07:34:43;9.33;;;4.53;;
27893;SDS011;15240;50.812;4.792;2023-05-07T07:37:12;9.80;;;4.73;;
27893;SDS011;15240;50.812;4.792;2023-05-07T07:39:38;9.77;;;4.30;;
27893;SDS011;15240;50.812;4.792;2023-05-07T07:42:06;10.13;;;4.87;;
27893;SDS011;15240;50.812;4.792;2023-05-07T07:44:32;9.70;;;4.80;;
27893;SDS011;15240;50.812;4.792;2023-05-07T07:46:58;10.03;;;4.50;;
27893;SDS011;15240;50.812;4.792;2023-05-07T07:49:24;10.00;;;4.57;;
27893;SDS011;15240;50.812;4.792;2023-05-07T07:51:50;9.97;;;4.60;;
27893;SDS011;15240;50.812;4.792;2023-05-07T07:54:16;8.37;;;4.63;;
27893;SDS011;15240;50.812;4.792;2023-05-07T07:56:42;9.83;;;4.43;;
27893;SDS011;15240;50.812;4.792;2023-05-07T07:59:09;10.43;;;4.50;;
27893;SDS011;15240;50.812;4.792;2023-05-07T08:01:35;13.07;;;4.47;;
27893;SDS011;15240;50.812;4.792;2023-05-07T08:04:01;7.70;;;3.67;;
27893;SDS011;15240;50.812;4.792;2023-05-07T08:06:29;7.30;;;4.20;;
27893;SDS011;15240;50.812;4.792;2023-05-07T08:08:55;9.03;;;4.57;;
27893;SDS011;15240;50.812;4.792;2023-05-07T08:11:21;11.27;;;4.63;;
27893;SDS011;15240;50.812;4.792;2023-05-07T08:13:47;7.93;;;4.67;;
27893;SDS011;15240;50.812;4.792;2023-05-07T08:16:13;9.17;;;4.60;;
27893;SDS011;15240;50.812;4.792;2023-05-07T08:18:39;8.43;;;4.73;;
27893;SDS011;15240;50.812;4.792;2023-05-07T08:21:05;9.67;;;4.13;;
27893;SDS011;15240;50.812;4.792;2023-05-07T08:23:32;10.00;;;5.00;;
27893;SDS011;15240;50.812;4.792;2023-05-07T08:25:59;8.80;;;3.90;;
27893;SDS011;15240;50.812;4.792;2023-05-07T08:28:25;8.27;;;3.70;;
27893;SDS011;15240;50.812;4.792;2023-05-07T08:30:53;7.33;;;3.50;;
27893;SDS011;15240;50.812;4.792;2023-05-07T08:33:19;7.20;;;3.73;;
27893;SDS011;15240;50.812;4.792;2023-05-07T08:35:45;7.90;;;3.50;;
27893;SDS011;15240;50.812;4.792;2023-05-07T08:38:12;7.10;;;3.30;;
27893;SDS011;15240;50.812;4.792;2023-05-07T08:40:38;7.43;;;3.10;;
27893;SDS011;15240;50.812;4.792;2023-05-07T08:43:06;6.87;;;3.33;;
27893;SDS011;15240;50.812;4.792;2023-05-07T08:45:33;9.10;;;3.60;;
27893;SDS011;15240;50.812;4.792;2023-05-07T08:48:00;7.40;;;3.20;;
27893;SDS011;15240;50.812;4.792;2023-05-07T08:50:27;8.77;;;3.38;;
27893;SDS011;15240;50.812;4.792;2023-05-07T08:52:54;5.30;;;3.07;;
27893;SDS011;15240;50.812;4.792;2023-05-07T08:55:22;7.13;;;3.07;;
27893;SDS011;15240;50.812;4.792;2023-05-07T08:57:50;6.97;;;3.17;;
27893;SDS011;15240;50.812;4.792;2023-05-07T09:00:18;7.40;;;3.33;;
27893;SDS011;15240;50.812;4.792;2023-05-07T09:02:46;7.30;;;2.90;;
27893;SDS011;15240;50.812;4.792;2023-05-07T09:05:13;7.47;;;3.20;;
27893;SDS011;15240;50.812;4.792;2023-05-07T09:07:41;6.23;;;2.97;;
27893;SDS011;15240;50.812;4.792;2023-05-07T09:10:25;5.93;;;2.40;;
27893;SDS011;15240;50.812;4.792;2023-05-07T09:12:54;3.77;;;2.20;;
27893;SDS011;15240;50.812;4.792;2023-05-07T09:15:28;7.00;;;3.23;;
27893;SDS011;15240;50.812;4.792;2023-05-07T09:17:59;6.47;;;2.77;;
27893;SDS011;15240;50.812;4.792;2023-05-07T09:20:27;4.80;;;3.20;;
27893;SDS011;15240;50.812;4.792;2023-05-07T09:22:57;5.30;;;3.00;;
27893;SDS011;15240;50.812;4.792;2023-05-07T09:25:31;6.17;;;2.80;;
27893;SDS011;15240;50.812;4.792;2023-05-07T09:27:58;7.33;;;3.00;;
27893;SDS011;15240;50.812;4.792;2023-05-07T09:30:29;7.20;;;2.90;;
27893;SDS011;15240;50.812;4.792;2023-05-07T09:33:00;6.93;;;3.17;;
27893;SDS011;15240;50.812;4.792;2023-05-07T09:35:27;5.30;;;3.37;;
27893;SDS011;15240;50.812;4.792;2023-05-07T09:38:03;5.10;;;3.30;;
27893;SDS011;15240;50.812;4.792;2023-05-07T09:41:20;7.33;;;3.63;;
27893;SDS011;15240;50.812;4.792;2023-05-07T09:44:26;6.20;;;3.63;;
27893;SDS011;15240;50.812;4.792;2023-05-07T09:57:13;6.73;;;3.90;;
27893;SDS011;15240;50.812;4.792;2023-05-07T10:00:10;8.33;;;3.60;;
27893;SDS011;15240;50.812;4.792;2023-05-07T10:05:59;7.73;;;4.00;;
27893;SDS011;15240;50.812;4.792;2023-05-07T10:09:10;5.13;;;3.87;;
27893;SDS011;15240;50.812;4.792;2023-05-07T10:12:31;7.40;;;3.50;;
27893;SDS011;15240;50.812;4.792;2023-05-07T10:21:56;7.13;;;3.73;;
27893;SDS011;15240;50.812;4.792;2023-05-07T10:34:23;7.07;;;3.70;;
27893;SDS011;15240;50.812;4.792;2023-05-07T10:43:39;7.83;;;3.37;;
27893;SDS011;15240;50.812;4.792;2023-05-07T10:53:21;5.53;;;3.03;;
27893;SDS011;15240;50.812;4.792;2023-05-07T10:56:33;6.00;;;3.20;;
27893;SDS011;15240;50.812;4.792;2023-05-07T10:59:29;6.63;;;3.27;;
27893;SDS011;15240;50.812;4.792;2023-05-07T11:04:24;7.77;;;3.20;;
27893;SDS011;15240;50.812;4.792;2023-05-07T11:07:17;5.70;;;3.40;;
27893;SDS011;15240;50.812;4.792;2023-05-07T11:09:56;5.45;;;3.00;;
27893;SDS011;15240;50.812;4.792;2023-05-07T11:12:53;5.03;;;3.30;;
27893;SDS011;15240;50.812;4.792;2023-05-07T11:15:34;6.80;;;3.27;;
27893;SDS011;15240;50.812;4.792;2023-05-07T11:18:14;7.27;;;2.77;;
27893;SDS011;15240;50.812;4.792;2023-05-07T11:20:54;5.27;;;2.70;;
27893;SDS011;15240;50.812;4.792;2023-05-07T11:26:06;3.60;;;2.10;;
27893;SDS011;15240;50.812;4.792;2023-05-07T11:28:37;5.50;;;2.53;;
27893;SDS011;15240;50.812;4.792;2023-05-07T11:31:03;4.90;;;2.65;;
27893;SDS011;15240;50.812;4.792;2023-05-07T11:33:46;5.37;;;2.37;;
27893;SDS011;15240;50.812;4.792;2023-05-07T11:36:13;5.53;;;2.80;;
27893;SDS011;15240;50.812;4.792;2023-05-07T11:38:42;5.15;;;2.47;;
27893;SDS011;15240;50.812;4.792;2023-05-07T11:41:11;4.47;;;2.17;;
27893;SDS011;15240;50.812;4.792;2023-05-07T11:43:40;4.33;;;2.30;;
27893;SDS011;15240;50.812;4.792;2023-05-07T11:46:20;5.60;;;2.28;;
27893;SDS011;15240;50.812;4.792;2023-05-07T11:48:49;4.83;;;2.30;;
27893;SDS011;15240;50.812;4.792;2023-05-07T11:51:24;6.15;;;2.42;;
27893;SDS011;15240;50.812;4.792;2023-05-07T11:54:17;3.13;;;1.80;;
27893;SDS011;15240;50.812;4.792;2023-05-07T11:56:44;5.05;;;2.25;;
27893;SDS011;15240;50.812;4.792;2023-05-07T11:59:11;4.30;;;2.30;;
27893;SDS011;15240;50.812;4.792;2023-05-07T12:01:38;4.28;;;2.35;;
27893;SDS011;15240;50.812;4.792;2023-05-07T12:04:13;4.50;;;2.05;;
27893;SDS011;15240;50.812;4.792;2023-05-07T12:06:42;6.05;;;2.47;;
27893;SDS011;15240;50.812;4.792;2023-05-07T12:09:10;4.38;;;2.22;;
27893;SDS011;15240;50.812;4.792;2023-05-07T12:11:40;3.83;;;2.20;;
27893;SDS011;15240;50.812;4.792;2023-05-07T12:14:12;5.28;;;2.50;;
27893;SDS011;15240;50.812;4.792;2023-05-07T12:16:44;6.57;;;2.40;;
27893;SDS011;15240;50.812;4.792;2023-05-07T12:19:11;6.32;;;2.30;;
27893;SDS011;15240;50.812;4.792;2023-05-07T12:21:38;4.82;;;2.30;;
27893;SDS011;15240;50.812;4.792;2023-05-07T12:24:05;5.50;;;2.40;;
27893;SDS011;15240;50.812;4.792;2023-05-07T12:26:32;3.88;;;2.03;;
27893;SDS011;15240;50.812;4.792;2023-05-07T12:28:58;4.60;;;2.10;;
27893;SDS011;15240;50.812;4.792;2023-05-07T12:31:25;4.43;;;2.13;;
27893;SDS011;15240;50.812;4.792;2023-05-07T12:34:07;4.32;;;2.22;;
27893;SDS011;15240;50.812;4.792;2023-05-07T12:36:41;4.65;;;2.42;;
27893;SDS011;15240;50.812;4.792;2023-05-07T12:39:08;5.50;;;2.45;;
27893;SDS011;15240;50.812;4.792;2023-05-07T12:41:54;5.15;;;2.55;;
27893;SDS011;15240;50.812;4.792;2023-05-07T12:44:24;5.15;;;2.78;;
27893;SDS011;15240;50.812;4.792;2023-05-07T12:46:51;5.05;;;2.40;;
27893;SDS011;15240;50.812;4.792;2023-05-07T12:49:20;7.05;;;2.40;;
27893;SDS011;15240;50.812;4.792;2023-05-07T12:52:14;4.43;;;2.33;;
27893;SDS011;15240;50.812;4.792;2023-05-07T12:54:52;3.40;;;2.00;;
27893;SDS011;15240;50.812;4.792;2023-05-07T12:57:21;4.20;;;2.10;;
27893;SDS011;15240;50.812;4.792;2023-05-07T12:59:47;5.68;;;2.25;;
27893;SDS011;15240;50.812;4.792;2023-05-07T13:02:14;3.22;;;2.08;;
27893;SDS011;15240;50.812;4.792;2023-05-07T13:05:01;5.93;;;2.50;;
27893;SDS011;15240;50.812;4.792;2023-05-07T13:07:55;3.83;;;2.22;;
27893;SDS011;15240;50.812;4.792;2023-05-07T13:10:42;6.22;;;2.35;;
27893;SDS011;15240;50.812;4.792;2023-05-07T13:13:11;3.42;;;1.80;;
27893;SDS011;15240;50.812;4.792;2023-05-07T13:15:39;4.18;;;1.90;;
27893;SDS011;15240;50.812;4.792;2023-05-07T13:18:26;5.03;;;1.83;;
27893;SDS011;15240;50.812;4.792;2023-05-07T13:27:35;5.13;;;2.30;;
27893;SDS011;15240;50.812;4.792;2023-05-07T13:33:08;5.38;;;2.25;;
27893;SDS011;15240;50.812;4.792;2023-05-07T13:35:46;4.50;;;2.13;;
27893;SDS011;15240;50.812;4.792;2023-05-07T13:38:53;4.45;;;2.25;;
27893;SDS011;15240;50.812;4.792;2023-05-07T13:41:40;4.80;;;2.10;;
27893;SDS011;15240;50.812;4.792;2023-05-07T13:44:12;4.60;;;2.05;;
27893;SDS011;15240;50.812;4.792;2023-05-07T13:46:45;4.88;;;1.98;;
27893;SDS011;15240;50.812;4.792;2023-05-07T13:49:31;5.13;;;2.05;;
27893;SDS011;15240;50.812;4.792;2023-05-07T13:52:30;4.88;;;2.17;;
27893;SDS011;15240;50.812;4.792;2023-05-07T13:55:16;5.07;;;2.20;;
27893;SDS011;15240;50.812;4.792;2023-05-07T13:57:55;3.72;;;2.42;;
27893;SDS011;15240;50.812;4.792;2023-05-07T14:00:48;6.25;;;2.58;;
27893;SDS011;15240;50.812;4.792;2023-05-07T14:03:19;4.38;;;2.10;;
27893;SDS011;15240;50.812;4.792;2023-05-07T14:06:34;3.67;;;2.38;;
27893;SDS011;15240;50.812;4.792;2023-05-07T14:09:01;4.57;;;2.22;;
27893;SDS011;15240;50.812;4.792;2023-05-07T14:11:48;4.07;;;2.55;;
27893;SDS011;15240;50.812;4.792;2023-05-07T14:15:10;3.70;;;2.13;;
27893;SDS011;15240;50.812;4.792;2023-05-07T14:18:21;6.75;;;2.58;;
27893;SDS011;15240;50.812;4.792;2023-05-07T14:21:08;6.55;;;3.08;;
27893;SDS011;15240;50.812;4.792;2023-05-07T14:23:42;4.15;;;2.22;;
27893;SDS011;15240;50.812;4.792;2023-05-07T14:26:20;5.43;;;2.55;;
27893;SDS011;15240;50.812;4.792;2023-05-07T14:28:47;6.70;;;2.60;;
27893;SDS011;15240;50.812;4.792;2023-05-07T14:31:19;2.92;;;2.30;;
27893;SDS011;15240;50.812;4.792;2023-05-07T14:34:10;3.97;;;2.60;;
27893;SDS011;15240;50.812;4.792;2023-05-07T14:37:12;4.30;;;2.50;;
27893;SDS011;15240;50.812;4.792;2023-05-07T14:39:39;3.92;;;2.20;;
27893;SDS011;15240;50.812;4.792;2023-05-07T14:42:33;4.07;;;2.63;;
27893;SDS011;15240;50.812;4.792;2023-05-07T14:45:26;3.83;;;2.80;;
27893;SDS011;15240;50.812;4.792;2023-05-07T14:48:16;3.83;;;2.80;;
27893;SDS011;15240;50.812;4.792;2023-05-07T14:50:51;4.47;;;2.60;;
27893;SDS011;15240;50.812;4.792;2023-05-07T14:53:19;5.50;;;3.28;;
27893;SDS011;15240;50.812;4.792;2023-05-07T14:55:47;3.78;;;2.67;;
27893;SDS011;15240;50.812;4.792;2023-05-07T14:58:15;4.20;;;3.03;;
27893;SDS011;15240;50.812;4.792;2023-05-07T15:00:51;4.90;;;2.85;;
27893;SDS011;15240;50.812;4.792;2023-05-07T15:03:18;4.75;;;3.13;;
27893;SDS011;15240;50.812;4.792;2023-05-07T15:05:47;6.78;;;3.60;;
27893;SDS011;15240;50.812;4.792;2023-05-07T15:08:35;5.43;;;4.07;;
27893;SDS011;15240;50.812;4.792;2023-05-07T15:11:02;5.10;;;3.45;;
27893;SDS011;15240;50.812;4.792;2023-05-07T15:13:29;6.13;;;3.35;;
27893;SDS011;15240;50.812;4.792;2023-05-07T15:16:01;5.20;;;3.47;;
27893;SDS011;15240;50.812;4.792;2023-05-07T15:18:34;5.78;;;3.70;;
27893;SDS011;15240;50.812;4.792;2023-05-07T15:21:00;4.80;;;3.35;;
27893;SDS011;15240;50.812;4.792;2023-05-07T15:23:47;5.68;;;3.22;;
27893;SDS011;15240;50.812;4.792;2023-05-07T15:26:15;5.47;;;3.47;;
27893;SDS011;15240;50.812;4.792;2023-05-07T15:28:50;6.15;;;3.25;;
27893;SDS011;15240;50.812;4.792;2023-05-07T15:31:43;6.68;;;4.40;;
27893;SDS011;15240;50.812;4.792;2023-05-07T15:34:09;5.95;;;4.88;;
27893;SDS011;15240;50.812;4.792;2023-05-07T15:36:36;5.60;;;3.75;;
27893;SDS011;15240;50.812;4.792;2023-05-07T15:39:04;5.93;;;3.67;;
27893;SDS011;15240;50.812;4.792;2023-05-07T15:45:03;4.63;;;3.35;;
27893;SDS011;15240;50.812;4.792;2023-05-07T15:47:54;5.40;;;3.58;;
27893;SDS011;15240;50.812;4.792;2023-05-07T15:51:11;5.20;;;3.60;;
27893;SDS011;15240;50.812;4.792;2023-05-07T15:54:39;6.88;;;4.53;;
27893;SDS011;15240;50.812;4.792;2023-05-07T15:57:08;6.97;;;4.13;;
27893;SDS011;15240;50.812;4.792;2023-05-07T16:00:03;4.97;;;3.40;;